Time;durP1;ratioP1;P1;durP2;ratioP2;P2;SDS_P1;SDS_P2;PMS_P1;PMS_P2;Temp;Humidity;BMP_temperature;BMP_pressure;BME280_temperature;BME280_humidity;BME280_pressure;Samples;Min_cycle;Max_cycle;Signal;HPM_P1;HPM_P2
2022/01/12 00:02:00;;;;;;;4.67;3.30;;;;;;;6.44;48.94;101019.48;1732466;80;21501;-69
2022/01/12 00:04:26;;;;;;;4.20;3.40;;;;;;;6.43;48.94;101021.78;1731387;82;21082;-71
2022/01/12 00:06:52;;;;;;;4.62;3.47;;;;;;;6.43;48.92;101026.20;1736908;81;21074;-70
2022/01/12 00:09:19;;;;;;;4.20;3.35;;;;;;;6.42;48.88;101028.00;1729350;82;21042;-69
2022/01/12 00:11:45;;;;;;;5.40;3.40;;;;;;;6.41;48.88;101023.69;1725939;82;21042;-69
2022/01/12 00:14:11;;;;;;;5.58;3.90;;;;;;;6.40;48.80;101029.91;1731969;82;21509;-69
2022/01/12 00:16:39;;;;;;;4.40;3.12;;;;;;;6.39;48.82;101024.25;1737213;81;21054;-72
2022/01/12 00:19:05;;;;;;;5.50;4.25;;;;;;;6.38;48.79;101027.02;1737818;81;21076;-69
2022/01/12 00:21:32;;;;;;;5.80;3.90;;;;;;;6.37;48.76;101015.59;1732111;82;21513;-70
2022/01/12 00:23:59;;;;;;;4.37;3.47;;;;;;;6.37;48.74;101020.04;1689769;84;21057;-69
2022/01/12 00:34:25;;;;;;;4.62;3.35;;;;;;;6.33;48.68;101018.58;1681509;84;20994;-69
2022/01/12 00:36:51;;;;;;;5.10;3.90;;;;;;;6.30;48.65;101023.13;1684501;84;21037;-68
2022/01/12 00:39:18;;;;;;;4.12;3.30;;;;;;;6.30;48.64;101020.97;1715189;82;23330;-70
2022/01/12 00:41:45;;;;;;;4.72;3.42;;;;;;;6.29;48.63;101019.27;1718061;82;21031;-69
2022/01/12 00:44:21;;;;;;;4.47;3.70;;;;;;;6.28;48.61;101025.52;1710706;82;21516;-68
2022/01/12 00:46:39;;;;;;;5.08;3.80;;;;;;;6.27;48.60;101019.85;1709326;82;22211;-69
2022/01/12 00:49:06;;;;;;;4.62;3.60;;;;;;;6.26;48.59;101026.10;1693526;82;21041;-70
2022/01/12 00:51:33;;;;;;;4.75;3.50;;;;;;;6.25;48.57;101021.27;1705785;83;21875;-69
2022/01/12 00:54:01;;;;;;;5.10;3.58;;;;;;;6.24;48.55;101014.81;1697699;83;21045;-70
2022/01/12 00:56:28;;;;;;;4.37;3.47;;;;;;;6.24;48.52;101020.09;1714531;82;20981;-69
2022/01/12 00:58:54;;;;;;;4.53;3.30;;;;;;;6.23;48.50;101019.70;1713563;82;21049;-69
2022/01/12 01:01:21;;;;;;;4.87;3.77;;;;;;;6.23;48.49;101019.70;1716132;82;21053;-70
2022/01/12 01:03:48;;;;;;;5.25;3.62;;;;;;;6.22;48.48;101011.41;1705859;82;21549;-69
2022/01/12 01:06:15;;;;;;;4.62;3.33;;;;;;;6.22;48.46;101014.05;1695553;82;21021;-68
2022/01/12 01:08:45;;;;;;;4.85;3.50;;;;;;;6.21;48.43;101011.89;1711521;82;21080;-69
2022/01/12 01:11:12;;;;;;;4.83;3.52;;;;;;;6.20;48.42;101009.36;1692333;82;21089;-69
2022/01/12 01:13:54;;;;;;;4.75;3.37;;;;;;;6.20;48.40;101009.36;1725089;82;21054;-69
2022/01/12 01:16:24;;;;;;;4.85;3.72;;;;;;;6.19;48.38;101011.64;1697354;82;21173;-70
2022/01/12 01:26:59;;;;;;;5.80;3.98;;;;;;;6.15;48.32;101011.50;1716305;82;21026;-70
2022/01/12 01:29:27;;;;;;;4.37;3.50;;;;;;;6.13;48.31;101014.23;1741012;80;21534;-69
2022/01/12 01:31:54;;;;;;;6.97;3.47;;;;;;;6.12;48.30;101012.53;1728963;80;22380;-68
2022/01/12 01:34:20;;;;;;;5.45;3.83;;;;;;;6.10;48.31;101015.31;1701011;82;21068;-69
2022/01/12 01:36:52;;;;;;;4.60;3.85;;;;;;;6.10;48.27;101019.27;1696653;82;21152;-69
2022/01/12 01:39:22;;;;;;;4.80;3.60;;;;;;;6.10;48.27;101025.86;1741878;81;21019;-67
2022/01/12 01:41:52;;;;;;;6.12;3.67;;;;;;;6.08;48.26;101022.48;1735084;81;21178;-68
2022/01/12 01:53:14;;;;;;;5.28;3.70;;;;;;;6.08;48.24;101023.81;1746696;81;21061;-67
2022/01/12 01:54:54;;;;;;;5.12;3.98;;;;;;;6.05;48.19;101027.97;1743975;81;21131;-67
2022/01/12 01:57:21;;;;;;;5.95;4.55;;;;;;;6.03;48.16;101027.72;1681518;83;21724;-67
2022/01/12 01:59:48;;;;;;;5.22;3.58;;;;;;;6.02;48.17;101024.21;1699313;83;21006;-67
2022/01/12 02:02:14;;;;;;;5.10;4.12;;;;;;;6.01;48.15;101022.55;1695336;82;21576;-68
2022/01/12 02:04:41;;;;;;;4.67;3.80;;;;;;;6.02;48.11;101019.42;1703158;83;21084;-68
2022/01/12 02:07:07;;;;;;;4.72;3.75;;;;;;;6.01;48.13;101027.82;1721800;82;22421;-67
2022/01/12 02:09:37;;;;;;;4.58;3.80;;;;;;;6.00;48.09;101026.11;1702546;83;21005;-69
2022/01/12 02:12:07;;;;;;;4.78;3.75;;;;;;;6.00;48.08;101026.11;1706146;83;21089;-68
2022/01/12 02:14:34;;;;;;;5.30;4.05;;;;;;;5.99;48.02;101019.63;1720053;82;21141;-68
2022/01/12 02:17:06;;;;;;;4.83;3.60;;;;;;;5.99;48.05;101032.36;1713377;82;21540;-68
2022/01/12 02:36:16;;;;;;;4.72;3.75;;;;;;;5.91;47.94;101030.70;1701452;82;21007;-67
2022/01/12 02:41:21;;;;;;;4.12;3.45;;;;;;;5.89;47.92;101025.98;1711418;83;21056;-68
2022/01/12 02:54:50;;;;;;;6.33;3.65;;;;;;;5.83;47.88;101033.87;1732195;82;21049;-68
2022/01/12 02:59:22;;;;;;;6.43;3.70;;;;;;;5.87;47.82;101026.56;1875231;76;28414;-68
2022/01/12 03:02:19;;;;;;;4.65;3.40;;;;;;;5.83;47.78;101029.05;1843307;77;21021;-68
2022/01/12 03:04:32;;;;;;;4.58;3.60;;;;;;;5.83;47.77;101029.05;1792240;78;21918;-68
2022/01/12 03:07:06;;;;;;;4.45;3.72;;;;;;;5.82;47.76;101033.97;1855317;77;20878;-67
2022/01/12 03:09:28;;;;;;;4.17;3.27;;;;;;;5.81;47.74;101030.95;1848699;77;20961;-68
2022/01/12 03:11:54;;;;;;;4.70;3.90;;;;;;;5.79;47.73;101024.45;1854004;77;21789;-67
2022/01/12 03:14:21;;;;;;;5.95;3.90;;;;;;;5.80;47.71;101030.11;1859883;77;20987;-69
2022/01/12 03:16:48;;;;;;;4.65;3.52;;;;;;;5.79;47.70;101027.58;1827139;77;21126;-68
2022/01/12 03:19:21;;;;;;;5.40;3.45;;;;;;;5.80;47.68;101029.28;1832770;77;21074;-68
2022/01/12 03:21:48;;;;;;;5.15;3.65;;;;;;;5.78;47.65;101029.38;1840648;77;20957;-68
2022/01/12 03:24:14;;;;;;;4.75;3.60;;;;;;;5.77;47.62;101027.67;1837787;77;21084;-67
2022/01/12 03:26:41;;;;;;;4.40;3.42;;;;;;;5.78;47.61;101032.50;1836910;77;21584;-67
2022/01/12 03:29:10;;;;;;;4.97;4.12;;;;;;;5.77;47.56;101027.67;1842159;77;21130;-68
2022/01/12 03:31:36;;;;;;;5.40;3.90;;;;;;;5.77;47.52;101025.52;1849615;77;21595;-68
2022/01/12 03:34:22;;;;;;;5.70;4.12;;;;;;;5.76;47.50;101028.64;1842530;75;21033;-68
2022/01/12 03:39:12;;;;;;;5.07;3.87;;;;;;;5.74;47.46;101022.63;1839217;77;21071;-68
2022/01/12 03:41:43;;;;;;;5.90;3.60;;;;;;;5.74;47.44;101027.04;1841891;77;21133;-68
2022/01/12 03:44:11;;;;;;;4.78;3.52;;;;;;;5.71;47.43;101031.58;1837850;77;21071;-68
2022/01/12 03:46:46;;;;;;;4.58;3.60;;;;;;;5.72;47.41;101035.08;1828659;77;21049;-67
2022/01/12 03:49:15;;;;;;;5.03;3.75;;;;;;;5.70;47.36;101036.50;1833272;77;21017;-67
2022/01/12 03:51:42;;;;;;;5.42;4.45;;;;;;;5.69;47.36;101033.48;1841242;77;21561;-67
2022/01/12 03:54:09;;;;;;;4.83;3.83;;;;;;;5.68;47.34;101027.85;1830464;77;21124;-67
2022/01/12 03:56:36;;;;;;;4.97;3.62;;;;;;;5.67;47.32;101030.10;1839473;77;20989;-68
2022/01/12 03:59:03;;;;;;;5.10;3.83;;;;;;;5.67;47.31;101029.27;1832942;77;21021;-68
2022/01/12 04:01:29;;;;;;;4.80;3.62;;;;;;;5.66;47.29;101027.56;1822602;78;20983;-68
2022/01/12 04:04:03;;;;;;;5.80;4.28;;;;;;;5.65;47.26;101028.05;1825169;77;21077;-67
2022/01/12 04:09:10;;;;;;;5.00;3.25;;;;;;;5.63;47.23;101023.36;1831076;78;21519;-68
2022/01/12 04:11:36;;;;;;;6.28;4.33;;;;;;;5.63;47.20;101025.16;1819161;78;21010;-68
2022/01/12 04:14:04;;;;;;;5.65;3.92;;;;;;;5.62;47.19;101026.09;1817409;78;21077;-68
2022/01/12 04:16:32;;;;;;;4.55;3.83;;;;;;;5.60;47.17;101022.72;1830428;77;21009;-69
2022/01/12 04:18:58;;;;;;;4.85;3.58;;;;;;;5.59;47.16;101022.36;1812762;78;21112;-68
2022/01/12 04:21:29;;;;;;;5.75;3.92;;;;;;;5.58;47.14;101022.84;1808505;78;21762;-68
2022/01/12 04:23:57;;;;;;;4.75;3.50;;;;;;;5.58;47.10;101020.66;1831738;78;21497;-67
2022/01/12 04:26:24;;;;;;;5.60;4.17;;;;;;;5.56;47.08;101018.60;1823193;78;20995;-68
2022/01/12 04:28:51;;;;;;;5.13;3.67;;;;;;;5.55;47.07;101017.77;1820437;78;21100;-68
2022/01/12 04:31:18;;;;;;;6.60;4.03;;;;;;;5.53;47.06;101017.03;1829376;77;21139;-67
2022/01/12 04:33:45;;;;;;;5.33;4.20;;;;;;;5.54;47.04;101015.23;1836929;77;21018;-66
2022/01/12 04:36:12;;;;;;;6.08;4.12;;;;;;;5.53;47.02;101013.56;1826538;78;21546;-67
2022/01/12 04:38:40;;;;;;;5.10;3.58;;;;;;;5.50;47.00;101012.82;1836683;78;21030;-66
2022/01/12 04:41:09;;;;;;;5.22;3.90;;;;;;;5.50;46.98;101017.23;1825120;78;21104;-68
2022/01/12 04:43:39;;;;;;;6.08;4.05;;;;;;;5.47;46.97;101018.29;1834548;77;21142;-68
2022/01/12 04:48:48;;;;;;;6.03;4.50;;;;;;;5.46;46.94;101024.98;1832605;78;21612;-67
2022/01/12 04:51:04;;;;;;;5.35;3.87;;;;;;;5.45;46.91;101020.67;1819106;78;21022;-69
2022/01/12 04:53:31;;;;;;;4.62;3.20;;;;;;;5.44;46.90;101020.28;1816795;78;21056;-68
2022/01/12 04:55:58;;;;;;;5.10;3.58;;;;;;;5.42;46.90;101017.75;1816340;78;21105;-67
2022/01/12 04:58:25;;;;;;;5.40;3.87;;;;;;;5.42;46.88;101023.50;1825194;77;21021;-70
2022/01/12 05:00:53;;;;;;;4.40;3.80;;;;;;;5.42;46.86;101020.86;1826480;77;21002;-68
2022/01/12 05:09:05;;;;;;;4.10;3.70;;;;;;;5.38;46.78;101029.92;1824854;76;21143;-68
2022/01/12 05:14:06;;;;;;;5.13;4.00;;;;;;;5.35;46.76;101034.07;1838586;77;21029;-68
2022/01/12 05:16:33;;;;;;;4.40;3.30;;;;;;;5.33;46.76;101036.80;1822629;77;21495;-68
2022/01/12 05:19:00;;;;;;;6.05;3.95;;;;;;;5.30;46.72;101031.27;1844673;77;21030;-68
2022/01/12 05:21:28;;;;;;;5.35;3.85;;;;;;;5.29;46.72;101032.23;1827031;77;21138;-68
2022/01/12 05:24:00;;;;;;;6.00;3.80;;;;;;;5.27;46.70;101028.86;1824791;77;21049;-67
2022/01/12 05:26:24;;;;;;;5.45;4.10;;;;;;;5.26;46.70;101035.06;1828238;77;21061;-68
2022/01/12 05:28:51;;;;;;;5.30;4.10;;;;;;;5.24;46.68;101032.17;1805427;77;21040;-68
2022/01/12 05:31:17;;;;;;;4.87;3.77;;;;;;;5.23;46.69;101030.47;1823512;76;21544;-68
2022/01/12 05:33:48;;;;;;;5.80;3.77;;;;;;;5.22;46.65;101036.70;1750649;80;21562;-68
2022/01/12 05:36:15;;;;;;;6.67;4.67;;;;;;;5.21;46.65;101033.68;1805762;79;21531;-67
2022/01/12 05:38:41;;;;;;;5.67;3.83;;;;;;;5.19;46.64;101042.16;1797996;79;21116;-69
2022/01/12 05:41:08;;;;;;;4.42;3.62;;;;;;;5.19;46.61;101039.53;1838926;77;21029;-70
2022/01/12 05:43:37;;;;;;;5.20;4.00;;;;;;;5.18;46.59;101037.37;1836025;77;21017;-68
2022/01/12 05:46:10;;;;;;;5.72;3.92;;;;;;;5.16;46.58;101041.03;1814734;77;21109;-68
2022/01/12 05:51:24;;;;;;;5.12;4.10;;;;;;;5.13;46.54;101046.87;1724094;80;21487;-69
2022/01/12 05:53:50;;;;;;;5.42;3.80;;;;;;;5.12;46.53;101043.05;1788581;79;20991;-68
2022/01/12 05:56:17;;;;;;;4.60;3.85;;;;;;;5.11;46.53;101048.77;1762099;79;21041;-68
2022/01/12 05:58:43;;;;;;;4.95;4.10;;;;;;;5.10;46.50;101046.27;1751601;79;22366;-68
2022/01/12 06:01:10;;;;;;;6.10;4.62;;;;;;;5.09;46.47;101056.41;1760820;80;21054;-68
2022/01/12 06:03:37;;;;;;;5.20;3.52;;;;;;;5.07;46.45;101050.40;1770819;80;21045;-68
2022/01/12 06:06:04;;;;;;;5.33;3.72;;;;;;;5.07;46.45;101055.19;1760372;80;21050;-68
2022/01/12 06:08:31;;;;;;;4.80;4.10;;;;;;;5.08;46.42;101050.75;1776142;80;21139;-67
2022/01/12 06:10:57;;;;;;;6.67;4.00;;;;;;;5.06;46.42;101050.88;1753360;79;21547;-69
2022/01/12 06:13:26;;;;;;;4.10;3.50;;;;;;;5.05;46.39;101054.45;1775964;80;21572;-69
2022/01/12 06:15:55;;;;;;;5.60;4.17;;;;;;;5.05;46.37;101054.92;1757108;80;21054;-69
2022/01/12 06:18:21;;;;;;;4.83;3.92;;;;;;;5.03;46.34;101052.39;1761459;80;21539;-69
2022/01/12 06:20:48;;;;;;;5.97;3.90;;;;;;;5.03;46.34;101052.87;1758804;80;21064;-69
2022/01/12 06:23:14;;;;;;;4.37;3.60;;;;;;;5.03;46.34;101046.28;1763115;80;21227;-69
2022/01/12 06:25:42;;;;;;;5.47;4.00;;;;;;;5.01;46.31;101050.33;1759225;80;21054;-70
2022/01/12 06:33:48;;;;;;;5.70;4.25;;;;;;;4.99;46.27;101052.22;1761606;80;21576;-69
2022/01/12 06:36:21;;;;;;;4.30;3.65;;;;;;;4.98;46.27;101059.73;1752421;80;21158;-69
2022/01/12 06:38:48;;;;;;;5.00;3.60;;;;;;;4.98;46.27;101062.84;1758398;80;21026;-67
2022/01/12 06:41:14;;;;;;;5.80;4.37;;;;;;;4.97;46.25;101059.86;1760663;80;21499;-67
2022/01/12 06:43:41;;;;;;;4.97;3.98;;;;;;;4.95;46.26;101058.63;1769520;79;21037;-69
2022/01/12 06:46:08;;;;;;;4.50;4.00;;;;;;;4.95;46.22;101062.58;1764101;80;21006;-69
2022/01/12 06:48:37;;;;;;;5.60;4.15;;;;;;;4.95;46.22;101066.53;1756471;80;21989;-70
2022/01/12 06:51:04;;;;;;;5.15;3.52;;;;;;;4.95;46.21;101068.33;1754666;80;21061;-69
2022/01/12 06:53:32;;;;;;;5.97;4.05;;;;;;;4.94;46.20;101064.83;1761597;80;21079;-69
2022/01/12 06:55:59;;;;;;;5.62;4.33;;;;;;;4.95;46.15;101063.91;1768869;80;20994;-70
2022/01/12 06:58:26;;;;;;;6.30;4.67;;;;;;;4.97;46.13;101065.13;1773333;80;21045;-69
2022/01/12 07:00:53;;;;;;;4.40;3.77;;;;;;;4.97;46.11;101066.44;1769438;79;21217;-70
2022/01/12 07:03:20;;;;;;;5.17;3.92;;;;;;;4.98;46.12;101069.44;1797138;79;21033;-70
2022/01/12 07:05:49;;;;;;;5.75;4.17;;;;;;;4.98;46.09;101065.48;1792696;79;21058;-68
2022/01/12 07:08:17;;;;;;;5.42;4.28;;;;;;;4.98;46.08;101070.27;1781579;79;21010;-66
2022/01/12 07:10:44;;;;;;;5.45;4.00;;;;;;;5.00;46.06;101073.64;1816237;77;21529;-67
2022/01/12 07:13:15;;;;;;;5.35;3.87;;;;;;;5.01;46.04;101071.88;1819900;77;23286;-69
2022/01/12 07:15:42;;;;;;;6.33;4.08;;;;;;;5.01;46.04;101067.45;1818936;77;21090;-65
2022/01/12 07:18:10;;;;;;;5.08;3.52;;;;;;;5.02;46.02;101069.16;1815740;77;21128;-66
2022/01/12 07:20:36;;;;;;;5.75;4.35;;;;;;;5.04;46.01;101078.25;1780141;77;21124;-67
2022/01/12 07:23:03;;;;;;;6.42;4.45;;;;;;;5.04;46.01;101074.30;1820507;77;21470;-65
2022/01/12 07:25:31;;;;;;;5.37;4.35;;;;;;;5.05;46.03;101075.52;1818250;77;20963;-66
2022/01/12 07:27:58;;;;;;;4.60;4.00;;;;;;;5.06;46.00;101081.63;1814955;77;21069;-67
2022/01/12 07:30:24;;;;;;;7.75;4.72;;;;;;;5.08;46.00;101083.69;1835666;77;20990;-68
2022/01/12 07:32:51;;;;;;;5.00;3.95;;;;;;;5.08;46.00;101081.92;1820263;77;21820;-67
2022/01/12 07:35:18;;;;;;;6.13;4.47;;;;;;;5.10;45.97;101079.19;1815797;77;21065;-65
2022/01/12 07:37:45;;;;;;;5.35;4.28;;;;;;;5.11;45.99;101076.91;1810779;77;21141;-66
2022/01/12 07:40:12;;;;;;;5.72;4.05;;;;;;;5.12;46.24;101074.66;1825919;77;20990;-67
2022/01/12 07:42:41;;;;;;;6.12;3.70;;;;;;;5.15;46.30;101081.03;1822700;76;21687;-69
2022/01/12 07:45:14;;;;;;;5.42;4.25;;;;;;;5.17;46.33;101078.30;1826659;77;21039;-68
2022/01/12 07:47:40;;;;;;;6.33;4.70;;;;;;;5.18;46.30;101074.25;1831139;77;21636;-66
2022/01/12 07:50:08;;;;;;;5.67;4.25;;;;;;;5.21;46.28;101072.72;1831124;76;21131;-69
2022/01/12 07:52:34;;;;;;;4.92;3.90;;;;;;;5.23;46.24;101077.89;1830705;77;21083;-68
2022/01/12 07:55:01;;;;;;;5.28;3.90;;;;;;;5.24;46.21;101076.48;1826781;76;21083;-67
2022/01/12 07:57:27;;;;;;;6.30;4.35;;;;;;;5.27;46.17;101073.66;1832958;77;21064;-69
2022/01/12 07:59:54;;;;;;;6.90;4.60;;;;;;;5.29;46.12;101075.72;1835300;76;22494;-67
2022/01/12 08:02:20;;;;;;;5.17;4.12;;;;;;;5.30;46.09;101072.12;1837515;77;21131;-69
2022/01/12 08:04:47;;;;;;;5.45;4.25;;;;;;;5.32;46.07;101070.22;1832341;76;21091;-67
2022/01/12 08:07:14;;;;;;;5.00;4.30;;;;;;;5.36;46.03;101070.87;1837612;76;21080;-69
2022/01/12 08:09:42;;;;;;;5.62;4.22;;;;;;;5.38;45.99;101069.45;1835007;77;21052;-69
2022/01/12 08:12:09;;;;;;;7.42;5.10;;;;;;;5.41;45.96;101074.50;1830764;77;21002;-68
2022/01/12 08:14:37;;;;;;;4.80;3.90;;;;;;;5.43;45.93;101076.59;1839160;77;21021;-69
2022/01/12 08:17:04;;;;;;;6.62;4.60;;;;;;;5.45;45.90;101079.97;1823255;77;21516;-69
2022/01/12 08:19:35;;;;;;;4.75;4.15;;;;;;;5.47;45.88;101080.71;1822613;77;21045;-68
2022/01/12 08:22:00;;;;;;;4.90;3.83;;;;;;;5.50;45.87;101079.17;1820273;77;20981;-69
2022/01/12 08:24:27;;;;;;;5.35;3.92;;;;;;;5.53;45.83;101078.14;1829353;76;22145;-67
2022/01/12 08:26:53;;;;;;;5.08;3.95;;;;;;;5.55;45.77;101070.97;1826750;76;21137;-67
2022/01/12 08:29:20;;;;;;;5.08;4.12;;;;;;;5.57;45.75;101063.32;1816554;77;21557;-68
2022/01/12 08:31:46;;;;;;;5.80;4.20;;;;;;;5.61;45.72;101066.59;1818061;76;21087;-70
2022/01/12 08:34:13;;;;;;;6.12;4.37;;;;;;;5.63;45.69;101068.17;1817133;77;21104;-67
2022/01/12 08:36:41;;;;;;;6.12;4.22;;;;;;;5.66;45.66;101064.47;1832979;76;21536;-68
2022/01/12 08:39:08;;;;;;;5.53;4.10;;;;;;;5.68;45.64;101064.77;1832669;77;21671;-70
2022/01/12 08:41:36;;;;;;;5.47;3.95;;;;;;;5.71;45.61;101061.90;1837949;77;21099;-68
2022/01/12 08:44:07;;;;;;;5.37;4.22;;;;;;;5.76;45.60;101064.72;1822689;77;21061;-69
2022/01/12 08:46:37;;;;;;;6.05;3.77;;;;;;;5.79;45.54;101063.18;1821935;77;21076;-68
2022/01/12 08:49:04;;;;;;;5.25;4.45;;;;;;;5.82;45.52;101048.48;1823262;77;21052;-67
2022/01/12 08:51:31;;;;;;;4.90;4.00;;;;;;;5.84;45.49;101058.44;1827981;76;22037;-69
2022/01/12 08:53:57;;;;;;;5.25;3.83;;;;;;;5.88;45.48;101050.69;1826932;77;21021;-70
2022/01/12 08:56:24;;;;;;;4.53;4.05;;;;;;;5.92;45.43;101049.52;1835174;76;21030;-68
2022/01/12 08:58:51;;;;;;;4.40;3.60;;;;;;;5.95;45.41;101048.03;1821464;77;21662;-68
2022/01/12 09:01:17;;;;;;;4.65;3.62;;;;;;;5.99;45.42;101037.64;1818844;77;21096;-69
2022/01/12 09:03:43;;;;;;;4.85;4.17;;;;;;;6.02;45.36;101040.04;1822940;77;21062;-67
2022/01/12 09:06:10;;;;;;;6.05;4.05;;;;;;;6.08;45.34;101040.09;1818466;77;21001;-69
2022/01/12 09:08:40;;;;;;;5.33;4.42;;;;;;;6.14;45.31;101034.86;1818684;77;21024;-68
2022/01/12 09:11:08;;;;;;;4.30;3.60;;;;;;;6.20;45.28;101039.70;1818590;77;21080;-69
2022/01/12 09:13:35;;;;;;;5.22;4.00;;;;;;;6.29;45.24;101035.10;1818126;77;21381;-70
2022/01/12 09:16:06;;;;;;;5.15;4.12;;;;;;;6.36;45.26;101034.20;1814655;77;21059;-70
2022/01/12 09:18:30;;;;;;;7.58;5.20;;;;;;;6.42;45.23;101034.59;1823095;77;21045;-69
2022/01/12 09:20:57;;;;;;;5.35;4.00;;;;;;;6.46;45.16;101027.31;1819494;76;21000;-68
2022/01/12 09:23:24;;;;;;;6.37;4.62;;;;;;;6.52;45.09;101032.63;1822973;77;20978;-69
2022/01/12 09:25:50;;;;;;;4.90;3.98;;;;;;;6.56;45.05;101029.64;1818917;77;21397;-67
2022/01/12 09:28:17;;;;;;;4.97;3.75;;;;;;;6.60;44.97;101019.70;1820577;77;23254;-68
2022/01/12 09:30:44;;;;;;;5.37;3.72;;;;;;;6.65;44.92;101025.02;1814668;77;21073;-68
2022/01/12 09:33:10;;;;;;;5.42;4.05;;;;;;;6.71;44.87;101024.22;1834323;77;21604;-68
2022/01/12 09:35:37;;;;;;;5.37;4.15;;;;;;;6.75;44.83;101018.59;1821826;77;21022;-68
2022/01/12 09:38:03;;;;;;;5.08;3.90;;;;;;;6.79;44.79;101021.86;1835743;77;21041;-66
2022/01/12 09:40:30;;;;;;;4.60;3.70;;;;;;;6.83;44.72;101029.44;1839158;77;21132;-67
2022/01/12 09:43:04;;;;;;;5.25;3.98;;;;;;;6.85;44.69;101019.59;1833226;77;21037;-67
2022/01/12 09:45:30;;;;;;;;;;;;;;;6.90;44.62;101020.59;1836130;77;20978;-68
2022/01/12 09:47:57;;;;;;;4.58;3.90;;;;;;;6.92;44.56;101021.81;1836685;77;20186;-69
2022/01/12 09:50:23;;;;;;;4.30;3.50;;;;;;;6.96;44.52;101016.66;1842431;77;21033;-68
2022/01/12 09:52:50;;;;;;;5.22;3.80;;;;;;;6.97;44.48;101014.37;1829460;77;21129;-68
2022/01/12 09:55:17;;;;;;;4.58;3.60;;;;;;;6.98;44.45;101010.30;1836878;77;20994;-67
2022/01/12 09:57:43;;;;;;;4.78;3.70;;;;;;;7.01;44.40;101007.44;1836037;76;21072;-67
2022/01/12 10:00:12;;;;;;;4.50;3.90;;;;;;;7.03;44.35;101003.34;1827174;77;20962;-67
2022/01/12 10:02:42;;;;;;;4.33;3.70;;;;;;;7.08;44.30;101007.33;1816749;77;21037;-70
2022/01/12 10:05:09;;;;;;;4.10;3.55;;;;;;;7.11;44.26;101002.31;1839316;77;21549;-68
2022/01/12 10:07:36;;;;;;;5.05;3.70;;;;;;;7.15;44.25;101010.37;1829894;77;21025;-70
2022/01/12 10:10:10;;;;;;;4.85;3.90;;;;;;;7.18;44.21;101004.00;1827122;77;21037;-68
2022/01/12 10:12:37;;;;;;;5.40;3.75;;;;;;;7.18;44.17;101002.19;1814885;77;21108;-68
2022/01/12 10:15:10;;;;;;;4.33;3.52;;;;;;;7.22;44.13;101009.41;1824414;77;21485;-68
2022/01/12 10:17:41;;;;;;;4.30;3.58;;;;;;;7.23;44.09;101006.66;1825271;77;21085;-68
2022/01/12 10:20:11;;;;;;;5.35;3.75;;;;;;;7.25;44.05;101010.52;1824531;77;20973;-67
2022/01/12 10:22:40;;;;;;;5.08;3.87;;;;;;;7.26;43.98;101000.30;1823541;77;21037;-69
2022/01/12 10:25:18;;;;;;;4.95;3.65;;;;;;;7.27;43.94;101000.67;1825032;77;21088;-69
2022/01/12 10:27:45;;;;;;;5.62;3.80;;;;;;;7.28;43.92;100999.23;1818624;77;21045;-66
2022/01/12 10:30:29;;;;;;;5.78;3.85;;;;;;;7.29;43.88;100995.63;1816932;77;21790;-70
2022/01/12 10:33:06;;;;;;;4.92;3.47;;;;;;;7.28;43.86;100995.27;1824357;77;21515;-67
2022/01/12 10:35:42;;;;;;;4.85;3.95;;;;;;;7.31;43.82;100996.83;1816804;77;21077;-68
2022/01/12 10:38:14;;;;;;;4.00;3.20;;;;;;;7.32;43.77;100997.21;1825362;77;21026;-68
2022/01/12 10:40:57;;;;;;;4.30;3.45;;;;;;;7.33;43.76;100998.88;1816541;77;20998;-69
2022/01/12 10:43:34;;;;;;;3.95;3.22;;;;;;;7.34;43.74;100997.06;1824313;77;21789;-67
2022/01/12 10:46:08;;;;;;;4.65;3.50;;;;;;;7.34;43.70;100998.39;1818323;77;21072;-67
2022/01/12 10:48:45;;;;;;;5.75;3.15;;;;;;;7.33;43.69;100997.55;1825279;77;21003;-68
2022/01/12 10:51:15;;;;;;;4.22;3.72;;;;;;;7.33;43.68;100996.23;1817996;77;21525;-68
2022/01/12 10:53:42;;;;;;;5.03;3.40;;;;;;;7.33;43.66;100996.72;1824174;77;20999;-69
2022/01/12 10:56:14;;;;;;;4.55;3.50;;;;;;;7.34;43.68;100995.75;1816806;77;21060;-69
2022/01/12 10:58:46;;;;;;;3.65;3.10;;;;;;;7.33;43.66;100994.08;1816971;77;21057;-69
2022/01/12 11:01:14;;;;;;;5.28;3.98;;;;;;;7.32;43.63;100993.25;1827063;77;20996;-67
2022/01/12 11:03:40;;;;;;;4.87;4.00;;;;;;;7.33;43.62;100994.08;1828998;77;21029;-69
2022/01/12 11:06:08;;;;;;;5.22;4.10;;;;;;;7.32;43.60;100985.31;1829244;77;21025;-70
2022/01/12 11:08:36;;;;;;;4.65;3.77;;;;;;;7.34;43.58;100982.53;1826957;77;21097;-68
2022/01/12 11:11:02;;;;;;;5.30;3.90;;;;;;;7.35;43.56;100990.35;1833756;76;21029;-68
2022/01/12 11:13:29;;;;;;;5.17;4.30;;;;;;;7.37;43.55;100984.95;1843798;77;21046;-69
2022/01/12 11:16:04;;;;;;;4.80;3.90;;;;;;;7.40;43.50;100980.28;1834381;77;21637;-69
2022/01/12 11:18:30;;;;;;;5.00;4.30;;;;;;;7.42;43.47;100981.00;1840831;77;21044;-69
2022/01/12 11:21:25;;;;;;;5.12;4.15;;;;;;;7.45;43.44;100980.75;1841004;77;21865;-69
2022/01/12 11:23:56;;;;;;;4.15;3.47;;;;;;;7.48;43.40;100973.91;1847304;76;21026;-68
2022/01/12 11:26:28;;;;;;;4.42;3.47;;;;;;;7.53;43.37;100972.22;1802025;77;21044;-69
2022/01/12 11:28:55;;;;;;;5.92;4.42;;;;;;;7.57;43.37;100980.31;1835752;77;20994;-67
2022/01/12 11:31:28;;;;;;;5.62;4.15;;;;;;;7.61;43.33;100979.56;1844526;77;22196;-69
2022/01/12 11:33:55;;;;;;;4.33;3.72;;;;;;;7.62;43.34;100976.81;1832150;77;21142;-65
2022/01/12 11:36:26;;;;;;;5.05;4.12;;;;;;;7.65;43.32;100977.91;1838627;77;21091;-64
2022/01/12 11:39:05;;;;;;;3.85;3.45;;;;;;;7.66;43.28;100976.93;1839672;76;21454;-65
2022/01/12 11:41:34;;;;;;;4.40;3.70;;;;;;;7.68;43.22;100965.75;1843548;77;21500;-66
2022/01/12 11:44:18;;;;;;;4.03;3.62;;;;;;;7.68;43.19;100967.56;1851832;77;21024;-69
2022/01/12 11:46:56;;;;;;;4.90;3.40;;;;;;;7.68;43.16;100968.39;1849238;75;22327;-67
2022/01/12 11:49:43;;;;;;;5.17;4.20;;;;;;;7.69;43.13;100961.33;1836473;76;21001;-64
2022/01/12 11:52:26;;;;;;;4.87;4.05;;;;;;;7.71;43.12;100958.53;1832953;77;21614;-64
2022/01/12 11:55:03;;;;;;;4.97;3.60;;;;;;;7.71;43.08;100960.72;1832656;77;21017;-65
2022/01/12 11:57:36;;;;;;;4.20;3.33;;;;;;;7.72;43.06;100966.84;1830706;77;21071;-66
2022/01/12 12:00:13;;;;;;;4.45;3.80;;;;;;;7.72;43.03;100962.87;1837372;77;22900;-64
2022/01/12 12:02:46;;;;;;;4.75;3.90;;;;;;;7.73;43.02;100959.29;1825907;75;20962;-65
2022/01/12 12:05:23;;;;;;;3.92;3.30;;;;;;;7.72;42.97;100955.78;1837331;77;20985;-65
2022/01/12 12:07:55;;;;;;;4.87;3.80;;;;;;;7.73;42.96;100953.51;1823622;76;21060;-66
2022/01/12 12:10:24;;;;;;;5.12;4.15;;;;;;;7.73;42.96;100950.03;1837232;77;21064;-64
2022/01/12 12:12:53;;;;;;;4.70;3.72;;;;;;;7.74;42.96;100951.70;1836278;77;21477;-64
2022/01/12 12:15:26;;;;;;;5.30;3.95;;;;;;;7.73;42.93;100953.51;1830777;77;21092;-64
2022/01/12 12:17:52;;;;;;;4.22;3.80;;;;;;;7.74;42.90;100948.56;1838882;77;21081;-64
2022/01/12 12:20:21;;;;;;;4.30;3.40;;;;;;;7.74;42.89;100949.88;1832050;77;21069;-63
2022/01/12 12:22:48;;;;;;;3.77;3.37;;;;;;;7.76;42.87;100944.48;1838543;77;21009;-65
2022/01/12 12:25:29;;;;;;;3.98;3.55;;;;;;;7.76;42.85;100941.34;1830493;77;21104;-65
2022/01/12 12:27:58;;;;;;;4.05;3.65;;;;;;;7.77;42.84;100942.21;1839838;75;22036;-65
2022/01/12 12:30:25;;;;;;;4.70;3.47;;;;;;;7.77;42.83;100939.56;1830147;77;21098;-65
2022/01/12 12:32:56;;;;;;;4.58;3.47;;;;;;;7.76;42.80;100937.38;1833806;77;21036;-63
2022/01/12 12:35:26;;;;;;;4.00;3.58;;;;;;;7.76;42.79;100935.22;1827186;77;21040;-64
2022/01/12 12:37:55;;;;;;;4.97;3.60;;;;;;;7.76;42.77;100938.70;1831286;77;21834;-64
2022/01/12 12:40:26;;;;;;;4.28;3.80;;;;;;;7.75;42.75;100946.29;1843571;77;21514;-63
2022/01/12 12:43:24;;;;;;;5.95;4.30;;;;;;;7.75;42.74;100934.88;1849830;77;21021;-63
2022/01/12 12:45:54;;;;;;;6.10;5.03;;;;;;;7.73;42.73;100937.63;1842368;77;21077;-66
2022/01/12 12:48:30;;;;;;;5.90;4.60;;;;;;;7.72;42.95;100865.01;1838873;77;21052;-66
2022/01/12 12:51:02;;;;;;;5.67;4.75;;;;;;;7.73;45.00;100864.06;1840985;77;21873;-62
2022/01/12 12:53:29;;;;;;;7.33;5.37;;;;;;;7.75;47.99;100933.06;1828587;77;21541;-65
2022/01/12 12:55:55;;;;;;;9.10;6.17;;;;;;;7.82;50.66;100941.34;1836713;77;21081;-63
2022/01/12 12:58:25;;;;;;;7.80;6.15;;;;;;;7.86;52.80;100936.17;1837557;77;21795;-63
2022/01/12 13:00:51;;;;;;;7.67;6.37;;;;;;;7.88;54.19;100938.23;1835559;76;21072;-66
2022/01/12 13:03:18;;;;;;;8.63;6.55;;;;;;;7.90;55.31;100932.80;1833702;76;21121;-65